sensor_id;sensor_type;location;lat;lon;timestamp;P1;durP1;ratioP1;P2;durP2;ratioP2
22417;SDS011;11376;50.932;4.442;2023-04-09T00:01:02;34.60;;;20.10;;
22417;SDS011;11376;50.932;4.442;2023-04-09T00:03:30;33.93;;;20.33;;
22417;SDS011;11376;50.932;4.442;2023-04-09T00:05:55;35.73;;;20.33;;
22417;SDS011;11376;50.932;4.442;2023-04-09T00:08:21;34.60;;;21.03;;
22417;SDS011;11376;50.932;4.442;2023-04-09T00:10:50;34.63;;;19.97;;
22417;SDS011;11376;50.932;4.442;2023-04-09T00:13:16;35.07;;;20.70;;
22417;SDS011;11376;50.932;4.442;2023-04-09T00:15:42;32.60;;;20.10;;
22417;SDS011;11376;50.932;4.442;2023-04-09T00:18:09;38.40;;;20.40;;
22417;SDS011;11376;50.932;4.442;2023-04-09T00:20:35;33.73;;;20.37;;
22417;SDS011;11376;50.932;4.442;2023-04-09T00:23:00;33.07;;;19.50;;
22417;SDS011;11376;50.932;4.442;2023-04-09T00:25:26;34.70;;;20.17;;
22417;SDS011;11376;50.932;4.442;2023-04-09T00:27:52;34.83;;;19.40;;
22417;SDS011;11376;50.932;4.442;2023-04-09T00:30:19;35.50;;;21.40;;
22417;SDS011;11376;50.932;4.442;2023-04-09T00:32:45;35.43;;;20.97;;
22417;SDS011;11376;50.932;4.442;2023-04-09T00:35:11;35.67;;;20.90;;
22417;SDS011;11376;50.932;4.442;2023-04-09T00:37:37;33.10;;;18.97;;
22417;SDS011;11376;50.932;4.442;2023-04-09T00:40:03;35.97;;;19.70;;
22417;SDS011;11376;50.932;4.442;2023-04-09T00:42:32;33.73;;;19.47;;
22417;SDS011;11376;50.932;4.442;2023-04-09T00:44:59;34.40;;;19.97;;
22417;SDS011;11376;50.932;4.442;2023-04-09T00:47:25;32.33;;;19.70;;
22417;SDS011;11376;50.932;4.442;2023-04-09T00:49:52;33.63;;;19.97;;
22417;SDS011;11376;50.932;4.442;2023-04-09T00:52:18;32.63;;;20.07;;
22417;SDS011;11376;50.932;4.442;2023-04-09T00:54:45;35.63;;;20.00;;
22417;SDS011;11376;50.932;4.442;2023-04-09T00:57:15;31.80;;;19.83;;
22417;SDS011;11376;50.932;4.442;2023-04-09T00:59:41;33.03;;;20.33;;
22417;SDS011;11376;50.932;4.442;2023-04-09T01:02:08;34.70;;;20.20;;
22417;SDS011;11376;50.932;4.442;2023-04-09T01:04:33;32.83;;;19.73;;
22417;SDS011;11376;50.932;4.442;2023-04-09T01:07:15;36.80;;;20.00;;
22417;SDS011;11376;50.932;4.442;2023-04-09T01:09:56;34.17;;;19.63;;
22417;SDS011;11376;50.932;4.442;2023-04-09T01:12:53;33.20;;;19.57;;
22417;SDS011;11376;50.932;4.442;2023-04-09T01:15:30;34.83;;;20.13;;
22417;SDS011;11376;50.932;4.442;2023-04-09T01:18:10;38.63;;;20.60;;
22417;SDS011;11376;50.932;4.442;2023-04-09T01:20:50;37.00;;;20.47;;
22417;SDS011;11376;50.932;4.442;2023-04-09T01:23:30;34.93;;;20.00;;
22417;SDS011;11376;50.932;4.442;2023-04-09T01:29:15;37.53;;;21.20;;
22417;SDS011;11376;50.932;4.442;2023-04-09T01:31:43;38.87;;;21.97;;
22417;SDS011;11376;50.932;4.442;2023-04-09T01:34:09;35.40;;;21.27;;
22417;SDS011;11376;50.932;4.442;2023-04-09T01:36:36;33.93;;;20.33;;
22417;SDS011;11376;50.932;4.442;2023-04-09T01:39:05;37.40;;;20.70;;
22417;SDS011;11376;50.932;4.442;2023-04-09T01:41:31;39.80;;;21.27;;
22417;SDS011;11376;50.932;4.442;2023-04-09T01:43:58;37.07;;;20.60;;
22417;SDS011;11376;50.932;4.442;2023-04-09T01:46:25;37.07;;;20.93;;
22417;SDS011;11376;50.932;4.442;2023-04-09T01:48:51;38.27;;;21.07;;
22417;SDS011;11376;50.932;4.442;2023-04-09T01:51:18;37.73;;;20.90;;
22417;SDS011;11376;50.932;4.442;2023-04-09T01:53:44;34.40;;;20.53;;
22417;SDS011;11376;50.932;4.442;2023-04-09T01:56:09;42.20;;;21.60;;
22417;SDS011;11376;50.932;4.442;2023-04-09T01:58:35;40.17;;;21.37;;
22417;SDS011;11376;50.932;4.442;2023-04-09T02:01:21;38.27;;;21.07;;
22417;SDS011;11376;50.932;4.442;2023-04-09T02:03:57;37.40;;;21.07;;
22417;SDS011;11376;50.932;4.442;2023-04-09T02:06:30;39.70;;;22.03;;
22417;SDS011;11376;50.932;4.442;2023-04-09T02:09:02;38.40;;;20.50;;
22417;SDS011;11376;50.932;4.442;2023-04-09T02:11:31;38.40;;;21.93;;
22417;SDS011;11376;50.932;4.442;2023-04-09T02:13:58;35.93;;;21.10;;
22417;SDS011;11376;50.932;4.442;2023-04-09T02:16:25;37.67;;;21.10;;
22417;SDS011;11376;50.932;4.442;2023-04-09T02:18:55;40.53;;;22.07;;
22417;SDS011;11376;50.932;4.442;2023-04-09T02:21:21;38.33;;;21.80;;
22417;SDS011;11376;50.932;4.442;2023-04-09T02:23:47;42.13;;;22.33;;
22417;SDS011;11376;50.932;4.442;2023-04-09T02:26:13;39.13;;;21.70;;
22417;SDS011;11376;50.932;4.442;2023-04-09T02:28:38;38.30;;;23.03;;
22417;SDS011;11376;50.932;4.442;2023-04-09T02:31:04;40.03;;;22.77;;
22417;SDS011;11376;50.932;4.442;2023-04-09T02:33:30;38.67;;;21.67;;
22417;SDS011;11376;50.932;4.442;2023-04-09T02:35:55;39.20;;;22.40;;
22417;SDS011;11376;50.932;4.442;2023-04-09T02:38:21;39.27;;;21.43;;
22417;SDS011;11376;50.932;4.442;2023-04-09T02:40:46;41.23;;;22.13;;
22417;SDS011;11376;50.932;4.442;2023-04-09T02:43:12;39.77;;;22.50;;
22417;SDS011;11376;50.932;4.442;2023-04-09T02:45:38;45.97;;;24.00;;
22417;SDS011;11376;50.932;4.442;2023-04-09T02:48:03;53.93;;;27.20;;
22417;SDS011;11376;50.932;4.442;2023-04-09T02:50:29;56.80;;;27.83;;
22417;SDS011;11376;50.932;4.442;2023-04-09T02:52:54;54.07;;;27.67;;
22417;SDS011;11376;50.932;4.442;2023-04-09T02:55:20;54.13;;;27.33;;
22417;SDS011;11376;50.932;4.442;2023-04-09T02:57:46;58.43;;;27.43;;
22417;SDS011;11376;50.932;4.442;2023-04-09T03:00:11;58.00;;;28.57;;
22417;SDS011;11376;50.932;4.442;2023-04-09T03:02:37;57.20;;;28.30;;
22417;SDS011;11376;50.932;4.442;2023-04-09T03:05:03;58.93;;;28.90;;
22417;SDS011;11376;50.932;4.442;2023-04-09T03:07:29;59.83;;;29.43;;
22417;SDS011;11376;50.932;4.442;2023-04-09T03:09:55;57.93;;;28.43;;
22417;SDS011;11376;50.932;4.442;2023-04-09T03:12:20;54.63;;;28.70;;
22417;SDS011;11376;50.932;4.442;2023-04-09T03:14:46;55.23;;;27.80;;
22417;SDS011;11376;50.932;4.442;2023-04-09T03:17:12;52.70;;;26.53;;
22417;SDS011;11376;50.932;4.442;2023-04-09T03:19:37;50.40;;;26.40;;
22417;SDS011;11376;50.932;4.442;2023-04-09T03:22:03;47.57;;;25.37;;
22417;SDS011;11376;50.932;4.442;2023-04-09T03:24:30;48.97;;;25.77;;
22417;SDS011;11376;50.932;4.442;2023-04-09T03:26:56;54.60;;;26.53;;
22417;SDS011;11376;50.932;4.442;2023-04-09T03:29:22;48.93;;;24.90;;
22417;SDS011;11376;50.932;4.442;2023-04-09T03:31:47;56.37;;;26.67;;
22417;SDS011;11376;50.932;4.442;2023-04-09T03:34:13;52.00;;;27.13;;
22417;SDS011;11376;50.932;4.442;2023-04-09T03:36:38;57.10;;;26.33;;
22417;SDS011;11376;50.932;4.442;2023-04-09T03:39:04;50.57;;;25.83;;
22417;SDS011;11376;50.932;4.442;2023-04-09T03:41:30;52.83;;;27.20;;
22417;SDS011;11376;50.932;4.442;2023-04-09T03:43:55;56.47;;;26.93;;
22417;SDS011;11376;50.932;4.442;2023-04-09T03:46:21;52.63;;;26.23;;
22417;SDS011;11376;50.932;4.442;2023-04-09T03:48:47;51.07;;;26.10;;
22417;SDS011;11376;50.932;4.442;2023-04-09T03:51:13;55.10;;;27.47;;
22417;SDS011;11376;50.932;4.442;2023-04-09T03:53:39;53.33;;;26.87;;
22417;SDS011;11376;50.932;4.442;2023-04-09T03:56:06;57.53;;;27.83;;
22417;SDS011;11376;50.932;4.442;2023-04-09T03:58:32;61.07;;;28.67;;
22417;SDS011;11376;50.932;4.442;2023-04-09T04:00:58;60.07;;;27.10;;
22417;SDS011;11376;50.932;4.442;2023-04-09T04:03:24;61.17;;;29.03;;
22417;SDS011;11376;50.932;4.442;2023-04-09T04:05:49;62.77;;;28.57;;
22417;SDS011;11376;50.932;4.442;2023-04-09T04:08:15;62.10;;;29.13;;
22417;SDS011;11376;50.932;4.442;2023-04-09T04:10:40;61.90;;;27.73;;
22417;SDS011;11376;50.932;4.442;2023-04-09T04:13:06;59.63;;;28.17;;
22417;SDS011;11376;50.932;4.442;2023-04-09T04:15:32;64.90;;;29.57;;
22417;SDS011;11376;50.932;4.442;2023-04-09T04:18:03;64.90;;;29.63;;
22417;SDS011;11376;50.932;4.442;2023-04-09T04:20:28;60.67;;;28.53;;
22417;SDS011;11376;50.932;4.442;2023-04-09T04:22:57;62.30;;;29.00;;
22417;SDS011;11376;50.932;4.442;2023-04-09T04:25:22;64.80;;;28.27;;
22417;SDS011;11376;50.932;4.442;2023-04-09T04:27:48;60.03;;;28.53;;
22417;SDS011;11376;50.932;4.442;2023-04-09T04:30:13;68.23;;;30.20;;
22417;SDS011;11376;50.932;4.442;2023-04-09T04:32:39;68.17;;;30.33;;
22417;SDS011;11376;50.932;4.442;2023-04-09T04:35:05;71.13;;;31.63;;
22417;SDS011;11376;50.932;4.442;2023-04-09T04:37:31;68.20;;;32.37;;
22417;SDS011;11376;50.932;4.442;2023-04-09T04:39:56;73.37;;;33.27;;
22417;SDS011;11376;50.932;4.442;2023-04-09T04:42:22;65.63;;;31.13;;
22417;SDS011;11376;50.932;4.442;2023-04-09T04:44:47;70.13;;;30.53;;
22417;SDS011;11376;50.932;4.442;2023-04-09T04:47:13;66.43;;;31.10;;
22417;SDS011;11376;50.932;4.442;2023-04-09T04:49:39;69.53;;;32.07;;
22417;SDS011;11376;50.932;4.442;2023-04-09T04:52:04;72.07;;;32.20;;
22417;SDS011;11376;50.932;4.442;2023-04-09T04:54:32;69.57;;;30.80;;
22417;SDS011;11376;50.932;4.442;2023-04-09T04:56:58;69.73;;;30.87;;
22417;SDS011;11376;50.932;4.442;2023-04-09T04:59:23;65.70;;;29.83;;
22417;SDS011;11376;50.932;4.442;2023-04-09T05:01:49;65.97;;;29.13;;
22417;SDS011;11376;50.932;4.442;2023-04-09T05:04:15;68.10;;;30.07;;
22417;SDS011;11376;50.932;4.442;2023-04-09T05:06:40;62.80;;;29.57;;
22417;SDS011;11376;50.932;4.442;2023-04-09T05:09:06;69.40;;;30.20;;
22417;SDS011;11376;50.932;4.442;2023-04-09T05:11:31;67.87;;;29.97;;
22417;SDS011;11376;50.932;4.442;2023-04-09T05:13:57;69.70;;;31.53;;
22417;SDS011;11376;50.932;4.442;2023-04-09T05:16:22;75.70;;;31.10;;
22417;SDS011;11376;50.932;4.442;2023-04-09T05:18:48;74.00;;;32.30;;
22417;SDS011;11376;50.932;4.442;2023-04-09T05:21:14;78.17;;;32.03;;
22417;SDS011;11376;50.932;4.442;2023-04-09T05:23:40;74.50;;;31.30;;
22417;SDS011;11376;50.932;4.442;2023-04-09T05:26:06;75.73;;;31.87;;
22417;SDS011;11376;50.932;4.442;2023-04-09T05:28:32;70.47;;;31.40;;
22417;SDS011;11376;50.932;4.442;2023-04-09T05:30:58;66.27;;;30.63;;
22417;SDS011;11376;50.932;4.442;2023-04-09T05:33:23;71.73;;;32.00;;
22417;SDS011;11376;50.932;4.442;2023-04-09T05:35:49;71.47;;;31.33;;
22417;SDS011;11376;50.932;4.442;2023-04-09T05:38:14;72.90;;;31.33;;
22417;SDS011;11376;50.932;4.442;2023-04-09T05:40:40;73.10;;;31.67;;
22417;SDS011;11376;50.932;4.442;2023-04-09T05:43:08;70.00;;;30.27;;
22417;SDS011;11376;50.932;4.442;2023-04-09T05:45:33;69.07;;;31.57;;
22417;SDS011;11376;50.932;4.442;2023-04-09T05:47:59;72.57;;;32.23;;
22417;SDS011;11376;50.932;4.442;2023-04-09T05:50:25;72.50;;;32.57;;
22417;SDS011;11376;50.932;4.442;2023-04-09T05:52:51;69.63;;;32.03;;
22417;SDS011;11376;50.932;4.442;2023-04-09T05:55:16;75.53;;;32.23;;
22417;SDS011;11376;50.932;4.442;2023-04-09T05:57:42;67.00;;;33.13;;
22417;SDS011;11376;50.932;4.442;2023-04-09T06:00:09;77.13;;;32.70;;
22417;SDS011;11376;50.932;4.442;2023-04-09T06:02:35;74.03;;;33.23;;
22417;SDS011;11376;50.932;4.442;2023-04-09T06:05:01;71.20;;;32.20;;
22417;SDS011;11376;50.932;4.442;2023-04-09T06:07:26;72.93;;;33.10;;
22417;SDS011;11376;50.932;4.442;2023-04-09T06:09:53;70.47;;;33.50;;
22417;SDS011;11376;50.932;4.442;2023-04-09T06:12:19;77.10;;;34.47;;
22417;SDS011;11376;50.932;4.442;2023-04-09T06:14:46;71.53;;;33.33;;
22417;SDS011;11376;50.932;4.442;2023-04-09T06:17:12;78.13;;;35.27;;
22417;SDS011;11376;50.932;4.442;2023-04-09T06:19:38;80.33;;;35.73;;
22417;SDS011;11376;50.932;4.442;2023-04-09T06:22:03;79.90;;;35.57;;
22417;SDS011;11376;50.932;4.442;2023-04-09T06:24:30;76.93;;;35.13;;
22417;SDS011;11376;50.932;4.442;2023-04-09T06:26:57;80.00;;;36.40;;
22417;SDS011;11376;50.932;4.442;2023-04-09T06:29:22;81.23;;;38.80;;
22417;SDS011;11376;50.932;4.442;2023-04-09T06:31:48;85.03;;;38.70;;
22417;SDS011;11376;50.932;4.442;2023-04-09T06:34:13;84.53;;;39.23;;
22417;SDS011;11376;50.932;4.442;2023-04-09T06:36:39;85.43;;;39.03;;
22417;SDS011;11376;50.932;4.442;2023-04-09T06:39:05;89.50;;;41.33;;
22417;SDS011;11376;50.932;4.442;2023-04-09T06:41:31;88.53;;;41.07;;
22417;SDS011;11376;50.932;4.442;2023-04-09T06:43:57;87.37;;;40.93;;
22417;SDS011;11376;50.932;4.442;2023-04-09T06:46:23;87.07;;;41.43;;
22417;SDS011;11376;50.932;4.442;2023-04-09T06:48:49;88.10;;;41.77;;
22417;SDS011;11376;50.932;4.442;2023-04-09T06:51:15;81.73;;;39.63;;
22417;SDS011;11376;50.932;4.442;2023-04-09T06:53:40;82.37;;;40.83;;
22417;SDS011;11376;50.932;4.442;2023-04-09T06:56:06;77.00;;;39.77;;
22417;SDS011;11376;50.932;4.442;2023-04-09T06:58:32;78.60;;;40.37;;
22417;SDS011;11376;50.932;4.442;2023-04-09T07:00:58;76.50;;;38.07;;
22417;SDS011;11376;50.932;4.442;2023-04-09T07:03:24;74.70;;;38.50;;
22417;SDS011;11376;50.932;4.442;2023-04-09T07:05:51;76.77;;;39.43;;
22417;SDS011;11376;50.932;4.442;2023-04-09T07:08:18;68.37;;;37.10;;
22417;SDS011;11376;50.932;4.442;2023-04-09T07:10:43;65.50;;;37.17;;
22417;SDS011;11376;50.932;4.442;2023-04-09T07:13:11;68.40;;;35.97;;
22417;SDS011;11376;50.932;4.442;2023-04-09T07:15:37;71.80;;;37.20;;
22417;SDS011;11376;50.932;4.442;2023-04-09T07:18:02;70.93;;;37.23;;
22417;SDS011;11376;50.932;4.442;2023-04-09T07:20:28;63.37;;;35.97;;
22417;SDS011;11376;50.932;4.442;2023-04-09T07:22:53;64.03;;;35.87;;
22417;SDS011;11376;50.932;4.442;2023-04-09T07:25:19;58.27;;;34.07;;
22417;SDS011;11376;50.932;4.442;2023-04-09T07:27:45;58.27;;;33.83;;
22417;SDS011;11376;50.932;4.442;2023-04-09T07:30:11;63.57;;;34.87;;
22417;SDS011;11376;50.932;4.442;2023-04-09T07:32:36;59.93;;;34.83;;
22417;SDS011;11376;50.932;4.442;2023-04-09T07:35:02;61.83;;;34.63;;
22417;SDS011;11376;50.932;4.442;2023-04-09T07:37:31;60.77;;;34.50;;
22417;SDS011;11376;50.932;4.442;2023-04-09T07:39:57;61.67;;;33.90;;
22417;SDS011;11376;50.932;4.442;2023-04-09T07:42:23;57.17;;;33.50;;
22417;SDS011;11376;50.932;4.442;2023-04-09T07:44:48;59.30;;;33.77;;
22417;SDS011;11376;50.932;4.442;2023-04-09T07:47:14;58.87;;;32.90;;
22417;SDS011;11376;50.932;4.442;2023-04-09T07:49:40;60.10;;;34.03;;
22417;SDS011;11376;50.932;4.442;2023-04-09T07:52:05;55.37;;;32.43;;
22417;SDS011;11376;50.932;4.442;2023-04-09T07:54:32;58.73;;;32.80;;
22417;SDS011;11376;50.932;4.442;2023-04-09T07:56:58;58.23;;;33.43;;
22417;SDS011;11376;50.932;4.442;2023-04-09T07:59:25;58.27;;;33.17;;
22417;SDS011;11376;50.932;4.442;2023-04-09T08:01:52;53.80;;;31.57;;
22417;SDS011;11376;50.932;4.442;2023-04-09T08:04:18;60.43;;;33.37;;
22417;SDS011;11376;50.932;4.442;2023-04-09T08:06:43;56.50;;;32.87;;
22417;SDS011;11376;50.932;4.442;2023-04-09T08:09:17;56.50;;;32.43;;
22417;SDS011;11376;50.932;4.442;2023-04-09T08:11:46;57.67;;;32.40;;
22417;SDS011;11376;50.932;4.442;2023-04-09T08:14:12;55.77;;;32.40;;
22417;SDS011;11376;50.932;4.442;2023-04-09T08:16:39;51.60;;;30.27;;
22417;SDS011;11376;50.932;4.442;2023-04-09T08:19:07;48.33;;;29.20;;
22417;SDS011;11376;50.932;4.442;2023-04-09T08:21:35;53.37;;;29.73;;
22417;SDS011;11376;50.932;4.442;2023-04-09T08:24:01;55.63;;;30.07;;
22417;SDS011;11376;50.932;4.442;2023-04-09T08:26:29;51.87;;;29.70;;
22417;SDS011;11376;50.932;4.442;2023-04-09T08:28:55;49.97;;;29.40;;
22417;SDS011;11376;50.932;4.442;2023-04-09T08:31:21;49.77;;;29.60;;
22417;SDS011;11376;50.932;4.442;2023-04-09T08:33:46;49.73;;;29.27;;
22417;SDS011;11376;50.932;4.442;2023-04-09T08:36:12;56.03;;;31.10;;
22417;SDS011;11376;50.932;4.442;2023-04-09T08:38:37;54.77;;;30.63;;
22417;SDS011;11376;50.932;4.442;2023-04-09T08:41:03;50.03;;;29.60;;
22417;SDS011;11376;50.932;4.442;2023-04-09T08:43:29;53.07;;;30.13;;
22417;SDS011;11376;50.932;4.442;2023-04-09T08:45:58;47.87;;;28.93;;
22417;SDS011;11376;50.932;4.442;2023-04-09T08:48:24;51.63;;;28.93;;
22417;SDS011;11376;50.932;4.442;2023-04-09T08:50:50;48.07;;;28.13;;
22417;SDS011;11376;50.932;4.442;2023-04-09T08:53:16;46.50;;;27.63;;
22417;SDS011;11376;50.932;4.442;2023-04-09T08:55:46;41.47;;;25.40;;
22417;SDS011;11376;50.932;4.442;2023-04-09T08:58:12;46.90;;;26.23;;
22417;SDS011;11376;50.932;4.442;2023-04-09T09:00:38;45.53;;;26.27;;
22417;SDS011;11376;50.932;4.442;2023-04-09T09:05:38;46.07;;;27.37;;
22417;SDS011;11376;50.932;4.442;2023-04-09T09:08:08;42.95;;;25.23;;
22417;SDS011;11376;50.932;4.442;2023-04-09T09:10:55;40.43;;;23.90;;
22417;SDS011;11376;50.932;4.442;2023-04-09T09:13:21;40.37;;;23.67;;
22417;SDS011;11376;50.932;4.442;2023-04-09T09:15:52;42.53;;;25.53;;
22417;SDS011;11376;50.932;4.442;2023-04-09T09:18:39;39.47;;;22.60;;
22417;SDS011;11376;50.932;4.442;2023-04-09T09:21:11;38.53;;;22.45;;
22417;SDS011;11376;50.932;4.442;2023-04-09T09:23:38;37.92;;;22.80;;
22417;SDS011;11376;50.932;4.442;2023-04-09T09:26:14;41.70;;;23.55;;
22417;SDS011;11376;50.932;4.442;2023-04-09T09:28:40;41.13;;;22.45;;
22417;SDS011;11376;50.932;4.442;2023-04-09T09:31:10;37.27;;;22.80;;
22417;SDS011;11376;50.932;4.442;2023-04-09T09:33:36;41.22;;;23.23;;
22417;SDS011;11376;50.932;4.442;2023-04-09T09:36:02;36.53;;;23.67;;
22417;SDS011;11376;50.932;4.442;2023-04-09T09:38:28;37.33;;;20.87;;
22417;SDS011;11376;50.932;4.442;2023-04-09T09:40:54;40.50;;;24.88;;
22417;SDS011;11376;50.932;4.442;2023-04-09T09:43:20;41.27;;;23.10;;
22417;SDS011;11376;50.932;4.442;2023-04-09T09:45:49;36.53;;;22.90;;
22417;SDS011;11376;50.932;4.442;2023-04-09T09:48:15;40.07;;;23.93;;
22417;SDS011;11376;50.932;4.442;2023-04-09T09:50:41;41.63;;;23.17;;
22417;SDS011;11376;50.932;4.442;2023-04-09T09:53:09;41.22;;;23.05;;
22417;SDS011;11376;50.932;4.442;2023-04-09T09:55:40;39.25;;;22.95;;
22417;SDS011;11376;50.932;4.442;2023-04-09T09:58:08;36.78;;;22.35;;
22417;SDS011;11376;50.932;4.442;2023-04-09T10:00:40;30.77;;;20.15;;
22417;SDS011;11376;50.932;4.442;2023-04-09T10:03:14;35.22;;;21.60;;
22417;SDS011;11376;50.932;4.442;2023-04-09T10:05:51;35.40;;;22.13;;
22417;SDS011;11376;50.932;4.442;2023-04-09T10:08:18;35.80;;;21.67;;
22417;SDS011;11376;50.932;4.442;2023-04-09T10:10:45;34.10;;;21.65;;
22417;SDS011;11376;50.932;4.442;2023-04-09T10:13:18;34.60;;;21.48;;
22417;SDS011;11376;50.932;4.442;2023-04-09T10:15:57;36.20;;;21.35;;
22417;SDS011;11376;50.932;4.442;2023-04-09T10:18:24;35.97;;;21.33;;
22417;SDS011;11376;50.932;4.442;2023-04-09T10:20:57;35.83;;;21.33;;
22417;SDS011;11376;50.932;4.442;2023-04-09T10:23:44;33.33;;;20.63;;
22417;SDS011;11376;50.932;4.442;2023-04-09T10:26:14;34.15;;;22.15;;
22417;SDS011;11376;50.932;4.442;2023-04-09T10:28:43;32.08;;;21.02;;
22417;SDS011;11376;50.932;4.442;2023-04-09T10:31:08;31.73;;;20.30;;
22417;SDS011;11376;50.932;4.442;2023-04-09T10:33:37;32.90;;;20.83;;
22417;SDS011;11376;50.932;4.442;2023-04-09T10:36:04;35.28;;;20.80;;
22417;SDS011;11376;50.932;4.442;2023-04-09T10:38:34;32.03;;;20.70;;
22417;SDS011;11376;50.932;4.442;2023-04-09T10:41:07;30.85;;;20.83;;
22417;SDS011;11376;50.932;4.442;2023-04-09T10:43:37;29.60;;;21.02;;
22417;SDS011;11376;50.932;4.442;2023-04-09T10:46:08;30.88;;;21.33;;
22417;SDS011;11376;50.932;4.442;2023-04-09T10:49:06;29.88;;;20.55;;
22417;SDS011;11376;50.932;4.442;2023-04-09T10:57:09;24.92;;;17.67;;
22417;SDS011;11376;50.932;4.442;2023-04-09T10:59:35;22.95;;;17.70;;
22417;SDS011;11376;50.932;4.442;2023-04-09T11:02:09;24.10;;;17.65;;
22417;SDS011;11376;50.932;4.442;2023-04-09T11:04:55;25.35;;;19.73;;
22417;SDS011;11376;50.932;4.442;2023-04-09T11:07:24;23.80;;;17.20;;
22417;SDS011;11376;50.932;4.442;2023-04-09T11:09:51;23.38;;;17.05;;
22417;SDS011;11376;50.932;4.442;2023-04-09T11:12:17;22.88;;;16.80;;
22417;SDS011;11376;50.932;4.442;2023-04-09T11:14:43;21.48;;;15.75;;
22417;SDS011;11376;50.932;4.442;2023-04-09T11:17:08;20.55;;;16.25;;
22417;SDS011;11376;50.932;4.442;2023-04-09T11:19:34;21.45;;;16.33;;
22417;SDS011;11376;50.932;4.442;2023-04-09T11:22:02;21.10;;;15.65;;
22417;SDS011;11376;50.932;4.442;2023-04-09T11:24:42;19.77;;;14.75;;
22417;SDS011;11376;50.932;4.442;2023-04-09T11:27:09;17.42;;;14.15;;
22417;SDS011;11376;50.932;4.442;2023-04-09T11:29:35;18.48;;;14.25;;
22417;SDS011;11376;50.932;4.442;2023-04-09T11:32:01;19.20;;;14.95;;
22417;SDS011;11376;50.932;4.442;2023-04-09T11:34:29;19.83;;;14.75;;
22417;SDS011;11376;50.932;4.442;2023-04-09T11:36:55;19.55;;;14.70;;
22417;SDS011;11376;50.932;4.442;2023-04-09T11:39:23;17.90;;;14.45;;
22417;SDS011;11376;50.932;4.442;2023-04-09T11:41:48;18.25;;;14.30;;
22417;SDS011;11376;50.932;4.442;2023-04-09T11:44:14;19.77;;;14.38;;
22417;SDS011;11376;50.932;4.442;2023-04-09T11:46:40;21.13;;;14.75;;
22417;SDS011;11376;50.932;4.442;2023-04-09T11:49:06;17.92;;;15.02;;
22417;SDS011;11376;50.932;4.442;2023-04-09T11:51:32;18.70;;;14.38;;
22417;SDS011;11376;50.932;4.442;2023-04-09T11:54:02;18.88;;;14.05;;
22417;SDS011;11376;50.932;4.442;2023-04-09T11:56:30;17.38;;;14.18;;
22417;SDS011;11376;50.932;4.442;2023-04-09T11:58:56;17.23;;;13.40;;
22417;SDS011;11376;50.932;4.442;2023-04-09T12:01:23;16.58;;;14.00;;
22417;SDS011;11376;50.932;4.442;2023-04-09T12:03:52;18.30;;;13.23;;
22417;SDS011;11376;50.932;4.442;2023-04-09T12:06:22;18.15;;;14.73;;
22417;SDS011;11376;50.932;4.442;2023-04-09T12:08:54;17.33;;;13.85;;
22417;SDS011;11376;50.932;4.442;2023-04-09T12:11:26;18.85;;;14.23;;
22417;SDS011;11376;50.932;4.442;2023-04-09T12:14:02;18.27;;;13.65;;
22417;SDS011;11376;50.932;4.442;2023-04-09T12:16:31;16.50;;;12.65;;
22417;SDS011;11376;50.932;4.442;2023-04-09T12:19:06;16.80;;;13.23;;
22417;SDS011;11376;50.932;4.442;2023-04-09T12:21:52;18.15;;;12.75;;
22417;SDS011;11376;50.932;4.442;2023-04-09T12:24:22;16.20;;;12.35;;
22417;SDS011;11376;50.932;4.442;2023-04-09T12:26:49;16.63;;;12.70;;
22417;SDS011;11376;50.932;4.442;2023-04-09T12:29:16;19.30;;;13.93;;
22417;SDS011;11376;50.932;4.442;2023-04-09T12:31:43;16.95;;;13.18;;
22417;SDS011;11376;50.932;4.442;2023-04-09T12:34:10;20.15;;;14.32;;
22417;SDS011;11376;50.932;4.442;2023-04-09T12:36:36;16.65;;;12.77;;
22417;SDS011;11376;50.932;4.442;2023-04-09T12:39:08;16.90;;;12.27;;
22417;SDS011;11376;50.932;4.442;2023-04-09T12:41:33;15.70;;;11.65;;
22417;SDS011;11376;50.932;4.442;2023-04-09T12:43:59;15.48;;;11.48;;
22417;SDS011;11376;50.932;4.442;2023-04-09T12:46:25;14.77;;;11.45;;
22417;SDS011;11376;50.932;4.442;2023-04-09T12:48:52;16.85;;;12.05;;
22417;SDS011;11376;50.932;4.442;2023-04-09T12:51:18;18.52;;;11.82;;
22417;SDS011;11376;50.932;4.442;2023-04-09T12:53:44;17.55;;;11.75;;
22417;SDS011;11376;50.932;4.442;2023-04-09T12:56:10;15.35;;;10.52;;
22417;SDS011;11376;50.932;4.442;2023-04-09T12:58:35;18.40;;;12.07;;
22417;SDS011;11376;50.932;4.442;2023-04-09T13:01:02;16.00;;;11.40;;
22417;SDS011;11376;50.932;4.442;2023-04-09T13:03:28;15.02;;;10.95;;
22417;SDS011;11376;50.932;4.442;2023-04-09T13:05:54;13.38;;;9.80;;
22417;SDS011;11376;50.932;4.442;2023-04-09T13:08:19;14.90;;;10.05;;
22417;SDS011;11376;50.932;4.442;2023-04-09T13:10:45;17.02;;;10.88;;
22417;SDS011;11376;50.932;4.442;2023-04-09T13:13:11;15.90;;;10.98;;
22417;SDS011;11376;50.932;4.442;2023-04-09T13:15:37;15.70;;;10.45;;
22417;SDS011;11376;50.932;4.442;2023-04-09T13:18:03;14.35;;;10.18;;
22417;SDS011;11376;50.932;4.442;2023-04-09T13:20:29;14.63;;;9.82;;
22417;SDS011;11376;50.932;4.442;2023-04-09T13:22:54;12.90;;;9.90;;
22417;SDS011;11376;50.932;4.442;2023-04-09T13:25:21;15.68;;;9.80;;
22417;SDS011;11376;50.932;4.442;2023-04-09T13:27:47;17.92;;;10.10;;
22417;SDS011;11376;50.932;4.442;2023-04-09T13:30:12;16.60;;;10.80;;
22417;SDS011;11376;50.932;4.442;2023-04-09T13:32:38;18.17;;;10.57;;
22417;SDS011;11376;50.932;4.442;2023-04-09T13:35:04;17.30;;;11.32;;
22417;SDS011;11376;50.932;4.442;2023-04-09T13:37:30;14.90;;;10.02;;
22417;SDS011;11376;50.932;4.442;2023-04-09T13:39:56;13.80;;;9.20;;
22417;SDS011;11376;50.932;4.442;2023-04-09T13:42:22;14.40;;;9.73;;
22417;SDS011;11376;50.932;4.442;2023-04-09T13:44:47;14.23;;;8.85;;
22417;SDS011;11376;50.932;4.442;2023-04-09T13:47:13;15.88;;;9.30;;
22417;SDS011;11376;50.932;4.442;2023-04-09T13:49:41;15.05;;;9.43;;
22417;SDS011;11376;50.932;4.442;2023-04-09T13:52:07;15.05;;;9.07;;
22417;SDS011;11376;50.932;4.442;2023-04-09T13:54:34;13.90;;;8.30;;
22417;SDS011;11376;50.932;4.442;2023-04-09T13:57:00;12.98;;;8.68;;
22417;SDS011;11376;50.932;4.442;2023-04-09T13:59:26;14.57;;;8.48;;
22417;SDS011;11376;50.932;4.442;2023-04-09T14:01:52;12.27;;;7.82;;
22417;SDS011;11376;50.932;4.442;2023-04-09T14:04:17;13.90;;;8.27;;
22417;SDS011;11376;50.932;4.442;2023-04-09T14:06:43;11.73;;;7.70;;
22417;SDS011;11376;50.932;4.442;2023-04-09T14:09:10;14.90;;;8.30;;
22417;SDS011;11376;50.932;4.442;2023-04-09T14:11:36;13.80;;;7.57;;
22417;SDS011;11376;50.932;4.442;2023-04-09T14:14:01;11.80;;;7.88;;
22417;SDS011;11376;50.932;4.442;2023-04-09T14:16:27;13.35;;;8.00;;
22417;SDS011;11376;50.932;4.442;2023-04-09T14:18:54;10.95;;;7.82;;
22417;SDS011;11376;50.932;4.442;2023-04-09T14:21:20;13.27;;;7.70;;
22417;SDS011;11376;50.932;4.442;2023-04-09T14:23:46;12.23;;;7.63;;
22417;SDS011;11376;50.932;4.442;2023-04-09T14:26:12;13.13;;;7.90;;
22417;SDS011;11376;50.932;4.442;2023-04-09T14:28:37;10.55;;;7.53;;
22417;SDS011;11376;50.932;4.442;2023-04-09T14:31:03;13.82;;;8.00;;
22417;SDS011;11376;50.932;4.442;2023-04-09T14:33:29;13.20;;;7.68;;
22417;SDS011;11376;50.932;4.442;2023-04-09T14:35:55;13.23;;;8.15;;